Time;durP1;ratioP1;P1;durP2;ratioP2;P2;SDS_P1;SDS_P2;PMS_P1;PMS_P2;Temp;Humidity;BMP_temperature;BMP_pressure;BME280_temperature;BME280_humidity;BME280_pressure;Samples;Min_cycle;Max_cycle;Signal;HPM_P1;HPM_P2
2021/12/30 00:01:11;;;;;;;2.22;0.30;;;24.00;99.90;;;;;;5055181;28;20059;-68
2021/12/30 00:03:40;;;;;;;5.07;0.40;;;23.80;99.90;;;;;;5051715;28;20032;-68
2021/12/30 00:06:08;;;;;;;2.42;0.40;;;23.70;99.90;;;;;;5051524;28;20021;-69
2021/12/30 00:08:36;;;;;;;2.90;0.35;;;24.00;99.90;;;;;;5054917;28;20048;-69
2021/12/30 00:11:04;;;;;;;5.72;1.15;;;24.20;99.90;;;;;;5050016;28;20032;-69
2021/12/30 00:13:31;;;;;;;1.77;0.30;;;24.20;99.90;;;;;;5053101;28;20025;-69
2021/12/30 00:15:59;;;;;;;1.92;0.43;;;24.50;99.90;;;;;;5052335;28;20115;-69
2021/12/30 00:18:27;;;;;;;1.83;0.30;;;24.50;99.90;;;;;;5052774;28;20151;-70
2021/12/30 00:20:55;;;;;;;3.50;0.40;;;24.90;99.90;;;;;;5053031;28;20044;-68
2021/12/30 00:23:23;;;;;;;3.47;0.20;;;24.90;99.90;;;;;;5054146;28;20021;-69
2021/12/30 00:25:50;;;;;;;3.38;0.60;;;25.10;99.90;;;;;;5053000;28;20025;-69
2021/12/30 00:28:23;;;;;;;5.18;0.77;;;25.20;99.90;;;;;;5043428;28;20033;-69
2021/12/30 00:30:52;;;;;;;4.30;0.50;;;25.30;99.90;;;;;;5034031;28;20569;-68
2021/12/30 00:33:20;;;;;;;4.60;0.40;;;25.20;99.90;;;;;;5053199;28;20537;-69
2021/12/30 00:35:48;;;;;;;2.25;0.20;;;25.60;99.90;;;;;;5050668;28;20032;-68
2021/12/30 00:38:16;;;;;;;4.80;0.60;;;25.40;99.90;;;;;;5052866;28;20064;-68
2021/12/30 00:40:44;;;;;;;3.00;0.38;;;25.40;99.90;;;;;;5053257;28;20061;-69
2021/12/30 00:43:11;;;;;;;3.10;0.57;;;25.10;99.90;;;;;;5046938;28;20075;-69
2021/12/30 00:45:38;;;;;;;4.65;0.57;;;25.10;99.90;;;;;;5051015;28;20017;-70
2021/12/30 00:48:07;;;;;;;2.67;0.32;;;25.40;99.90;;;;;;5055608;28;20045;-70
2021/12/30 00:50:36;;;;;;;1.98;0.20;;;25.40;99.90;;;;;;5055815;28;20035;-69
2021/12/30 00:53:04;;;;;;;3.00;0.30;;;25.60;99.90;;;;;;5057170;28;20447;-68
2021/12/30 00:55:32;;;;;;;3.22;0.30;;;25.70;99.90;;;;;;5057399;28;20074;-69
2021/12/30 00:58:00;;;;;;;3.35;0.40;;;25.50;99.90;;;;;;5056578;28;20485;-68
2021/12/30 01:00:27;;;;;;;3.13;0.38;;;25.40;99.90;;;;;;5056518;28;20033;-68
2021/12/30 01:02:55;;;;;;;3.47;0.73;;;25.60;99.90;;;;;;5055596;28;20400;-68
2021/12/30 01:05:23;;;;;;;2.58;0.30;;;25.70;99.90;;;;;;5054914;28;20385;-69
2021/12/30 01:07:50;;;;;;;1.98;0.20;;;25.90;99.90;;;;;;5056847;28;20091;-69
2021/12/30 01:10:25;;;;;;;2.05;0.50;;;25.80;99.90;;;;;;5055903;28;20048;-68
2021/12/30 01:12:56;;;;;;;2.45;0.30;;;26.00;99.90;;;;;;5057344;28;20044;-67
2021/12/30 01:15:34;;;;;;;3.15;0.40;;;26.20;99.90;;;;;;5056829;28;20033;-68
2021/12/30 01:18:41;;;;;;;2.10;0.30;;;26.20;99.90;;;;;;5053134;28;20021;-69
2021/12/30 01:20:57;;;;;;;4.38;0.30;;;25.70;99.90;;;;;;5050939;28;20045;-68
2021/12/30 01:23:25;;;;;;;3.75;0.32;;;25.80;99.90;;;;;;5038150;28;20025;-68
2021/12/30 01:25:55;;;;;;;2.28;0.40;;;25.70;99.90;;;;;;5038066;28;20021;-69
2021/12/30 01:28:24;;;;;;;3.55;0.30;;;25.90;99.90;;;;;;5037127;28;20405;-68
2021/12/30 01:30:51;;;;;;;2.95;0.32;;;25.90;99.90;;;;;;5037896;28;20033;-68
2021/12/30 01:33:19;;;;;;;2.28;0.40;;;25.70;99.90;;;;;;5057121;28;20424;-69
2021/12/30 01:35:46;;;;;;;3.25;0.50;;;25.80;99.90;;;;;;5056298;28;20025;-68
2021/12/30 01:38:16;;;;;;;2.92;0.70;;;25.80;99.90;;;;;;5057120;28;20089;-69
2021/12/30 01:40:47;;;;;;;2.22;0.50;;;25.80;99.90;;;;;;5052664;28;20037;-69
2021/12/30 01:43:15;;;;;;;5.95;0.20;;;25.80;99.90;;;;;;5057026;28;20151;-68
2021/12/30 01:45:45;;;;;;;1.23;0.20;;;26.00;99.90;;;;;;5056432;28;20040;-68
2021/12/30 01:48:13;;;;;;;3.28;0.30;;;26.40;99.90;;;;;;5055093;28;20049;-68
2021/12/30 01:50:41;;;;;;;3.65;0.65;;;25.80;99.90;;;;;;5056372;28;20110;-68
2021/12/30 01:53:09;;;;;;;3.30;0.35;;;25.80;99.90;;;;;;5037038;28;20025;-68
2021/12/30 01:55:38;;;;;;;5.68;0.30;;;25.80;99.90;;;;;;5048096;28;20451;-68
2021/12/30 01:58:06;;;;;;;3.60;0.43;;;25.90;99.90;;;;;;5066430;28;20053;-69
2021/12/30 02:00:36;;;;;;;4.40;0.52;;;26.10;99.90;;;;;;5036103;28;20128;-69
2021/12/30 02:03:05;;;;;;;1.00;0.30;;;26.20;99.90;;;;;;5055483;28;20079;-68
2021/12/30 02:05:33;;;;;;;2.13;0.35;;;26.10;99.90;;;;;;5053977;28;20493;-69
2021/12/30 02:08:01;;;;;;;0.77;0.15;;;26.30;99.90;;;;;;5054398;28;20029;-69
2021/12/30 02:10:28;;;;;;;4.13;0.75;;;26.30;99.90;;;;;;5056307;28;20055;-69
2021/12/30 02:12:56;;;;;;;5.22;0.50;;;26.40;99.90;;;;;;5055053;28;20086;-69
2021/12/30 02:15:26;;;;;;;2.05;0.40;;;25.90;99.90;;;;;;5055216;28;20051;-69
2021/12/30 02:17:54;;;;;;;2.42;0.35;;;26.10;99.90;;;;;;5054550;28;20045;-68
2021/12/30 02:20:51;;;;;;;1.45;0.20;;;26.10;99.90;;;;;;5056512;28;20116;-69
2021/12/30 02:23:22;;;;;;;2.72;0.25;;;26.20;99.90;;;;;;5036640;28;20080;-69
2021/12/30 02:25:52;;;;;;;1.52;0.43;;;25.90;99.90;;;;;;5037520;28;20057;-69
2021/12/30 02:28:24;;;;;;;1.55;0.13;;;25.80;99.90;;;;;;5052066;28;20038;-69
2021/12/30 02:30:53;;;;;;;2.78;0.30;;;25.80;99.90;;;;;;5037133;28;20028;-68
2021/12/30 02:33:21;;;;;;;3.58;0.40;;;25.90;99.90;;;;;;5036639;28;20034;-69
2021/12/30 02:35:48;;;;;;;1.23;0.20;;;26.30;99.90;;;;;;5044203;28;20029;-68
2021/12/30 02:38:18;;;;;;;3.67;0.30;;;26.00;99.90;;;;;;5054470;28;20025;-68
2021/12/30 02:40:49;;;;;;;2.42;0.43;;;26.00;99.90;;;;;;5054341;28;20040;-68
2021/12/30 02:43:21;;;;;;;2.08;0.30;;;26.30;99.90;;;;;;5056899;28;20025;-69
2021/12/30 02:45:49;;;;;;;1.52;0.28;;;25.90;99.90;;;;;;5056273;28;20044;-69
2021/12/30 02:48:20;;;;;;;2.17;0.38;;;26.00;99.90;;;;;;5054289;28;20049;-68
2021/12/30 02:50:50;;;;;;;4.68;0.30;;;25.90;99.90;;;;;;5056152;28;20025;-69
2021/12/30 02:53:20;;;;;;;2.25;0.20;;;25.90;99.90;;;;;;5034951;28;20493;-69
2021/12/30 02:55:48;;;;;;;3.17;0.30;;;25.90;99.90;;;;;;5048749;28;20108;-69
2021/12/30 02:58:16;;;;;;;4.18;0.43;;;25.80;99.90;;;;;;5055296;28;20024;-68
2021/12/30 03:00:49;;;;;;;3.05;0.30;;;25.80;99.90;;;;;;5054976;28;20123;-69
2021/12/30 03:03:21;;;;;;;2.03;0.30;;;25.90;99.90;;;;;;5054039;28;20021;-69
2021/12/30 03:05:54;;;;;;;2.33;0.40;;;25.90;99.90;;;;;;5053276;28;20121;-69
2021/12/30 03:08:22;;;;;;;2.45;0.50;;;25.60;99.90;;;;;;5055751;28;20036;-69
2021/12/30 03:10:50;;;;;;;3.78;0.20;;;25.70;99.90;;;;;;5049508;28;20033;-69
2021/12/30 03:13:19;;;;;;;3.00;0.30;;;25.70;99.90;;;;;;5054481;28;20037;-69
2021/12/30 03:15:47;;;;;;;3.83;0.55;;;25.80;99.90;;;;;;5055713;28;20111;-68
2021/12/30 03:18:15;;;;;;;3.25;0.40;;;25.70;99.90;;;;;;5054082;28;20025;-68
2021/12/30 03:20:42;;;;;;;2.17;0.30;;;25.90;99.90;;;;;;5057296;28;20370;-69
2021/12/30 03:23:09;;;;;;;3.65;0.50;;;25.60;99.90;;;;;;5052226;28;20032;-69
2021/12/30 03:25:37;;;;;;;4.63;0.32;;;26.10;99.90;;;;;;5056945;28;20025;-68
2021/12/30 03:28:05;;;;;;;1.52;0.32;;;25.90;99.90;;;;;;5056687;28;20028;-69
2021/12/30 03:30:32;;;;;;;4.03;0.73;;;25.40;99.90;;;;;;5041131;28;20044;-68
2021/12/30 03:33:00;;;;;;;1.23;0.45;;;25.00;99.90;;;;;;5068821;28;20029;-68
2021/12/30 03:35:28;;;;;;;3.45;0.20;;;25.20;99.90;;;;;;5056255;28;20033;-69
2021/12/30 03:37:56;;;;;;;5.43;0.35;;;25.50;99.90;;;;;;5053846;28;20496;-69
2021/12/30 03:40:24;;;;;;;0.80;0.10;;;25.40;99.90;;;;;;5055876;28;20036;-68
2021/12/30 03:42:52;;;;;;;3.03;0.52;;;25.30;99.90;;;;;;5053096;28;20027;-70
2021/12/30 03:45:19;;;;;;;2.58;0.60;;;25.60;99.90;;;;;;5053795;28;20079;-68
2021/12/30 03:47:49;;;;;;;1.10;0.20;;;25.40;99.90;;;;;;5053646;28;20090;-69
2021/12/30 03:50:23;;;;;;;3.38;0.22;;;25.50;99.90;;;;;;5053625;28;20065;-68
2021/12/30 03:53:00;;;;;;;1.58;0.10;;;25.60;99.90;;;;;;5052219;28;20047;-68
2021/12/30 03:55:30;;;;;;;1.75;0.20;;;25.20;99.90;;;;;;5053873;28;20033;-69
2021/12/30 03:57:58;;;;;;;5.10;0.47;;;25.00;99.90;;;;;;5051809;28;20028;-69
2021/12/30 04:00:27;;;;;;;2.60;0.20;;;25.00;99.90;;;;;;5053948;28;20060;-68
2021/12/30 04:02:55;;;;;;;2.30;0.38;;;25.00;99.90;;;;;;5049478;28;20048;-69
2021/12/30 04:05:23;;;;;;;2.85;0.30;;;25.10;99.90;;;;;;5036876;28;20040;-68
2021/12/30 04:07:52;;;;;;;1.52;0.20;;;25.10;99.90;;;;;;5051349;28;20496;-68
2021/12/30 04:10:24;;;;;;;2.10;0.32;;;25.00;99.90;;;;;;5053380;28;20048;-71
2021/12/30 04:12:52;;;;;;;3.13;0.10;;;25.00;99.90;;;;;;5052376;28;20025;-68
2021/12/30 04:15:21;;;;;;;4.20;0.20;;;25.00;99.90;;;;;;5054224;28;20040;-68
2021/12/30 04:17:48;;;;;;;5.28;0.63;;;25.00;99.90;;;;;;5054562;28;20378;-68
2021/12/30 04:20:17;;;;;;;1.52;0.20;;;25.00;99.90;;;;;;5054163;28;20079;-68
2021/12/30 04:22:45;;;;;;;1.88;0.40;;;24.90;99.90;;;;;;5050836;28;20029;-68
2021/12/30 04:25:15;;;;;;;5.68;0.40;;;24.90;99.90;;;;;;5051911;28;20389;-68
2021/12/30 04:27:43;;;;;;;2.30;0.52;;;24.70;99.90;;;;;;5068573;28;20033;-69
2021/12/30 04:30:14;;;;;;;1.63;0.22;;;24.80;99.90;;;;;;5055418;28;20021;-68
2021/12/30 04:32:41;;;;;;;1.90;0.20;;;24.80;99.90;;;;;;5053979;28;20033;-68
2021/12/30 04:35:10;;;;;;;2.50;0.52;;;24.70;99.90;;;;;;5053370;28;20036;-68
2021/12/30 04:37:38;;;;;;;3.70;0.57;;;24.70;99.90;;;;;;5053183;28;20079;-68
2021/12/30 04:40:07;;;;;;;2.63;0.30;;;24.70;99.90;;;;;;5051979;28;20385;-68
2021/12/30 04:42:34;;;;;;;3.35;0.20;;;24.70;99.90;;;;;;5053167;28;20033;-67
2021/12/30 04:45:02;;;;;;;2.65;0.20;;;24.70;99.90;;;;;;5055462;28;20112;-68
2021/12/30 04:47:30;;;;;;;2.08;0.30;;;24.70;99.90;;;;;;5054052;28;20045;-68
2021/12/30 04:49:58;;;;;;;1.45;0.30;;;24.80;99.90;;;;;;5054431;28;20024;-68
2021/12/30 04:52:26;;;;;;;2.25;0.20;;;24.80;99.90;;;;;;5052406;28;20047;-69
2021/12/30 04:54:54;;;;;;;4.35;0.40;;;24.80;99.90;;;;;;5054842;28;20346;-69
2021/12/30 04:57:22;;;;;;;2.95;0.35;;;24.70;99.90;;;;;;5052223;28;20048;-68
2021/12/30 04:59:49;;;;;;;7.30;1.60;;;24.70;99.90;;;;;;5051443;28;20028;-68
2021/12/30 05:02:16;;;;;;;2.05;0.20;;;24.70;99.90;;;;;;5040337;28;20382;-68
2021/12/30 05:04:44;;;;;;;3.20;0.40;;;24.80;99.90;;;;;;5047265;28;20037;-68
2021/12/30 05:07:11;;;;;;;2.67;0.20;;;24.90;99.90;;;;;;5051494;28;20096;-68
2021/12/30 05:09:38;;;;;;;0.93;0.20;;;24.80;99.90;;;;;;5054828;28;20510;-69
2021/12/30 05:12:06;;;;;;;2.28;0.10;;;24.70;99.90;;;;;;5053222;28;20029;-69
2021/12/30 05:14:33;;;;;;;2.20;0.20;;;24.80;99.90;;;;;;5053070;28;20092;-68
2021/12/30 05:17:03;;;;;;;2.92;0.20;;;24.80;99.90;;;;;;5049796;28;20061;-68
2021/12/30 05:19:31;;;;;;;2.08;0.20;;;24.80;99.90;;;;;;5038689;28;20552;-68
2021/12/30 05:21:59;;;;;;;1.27;0.30;;;24.80;99.90;;;;;;5042715;28;20032;-68
2021/12/30 05:24:27;;;;;;;4.28;0.40;;;24.70;99.90;;;;;;5052083;28;20040;-67
2021/12/30 05:26:54;;;;;;;2.80;0.10;;;24.70;99.90;;;;;;5049987;28;20168;-68
2021/12/30 05:29:21;;;;;;;2.78;0.60;;;24.80;99.90;;;;;;5052248;28;20021;-67
2021/12/30 05:31:48;;;;;;;3.10;0.40;;;24.70;99.90;;;;;;5054573;28;20029;-67
2021/12/30 05:34:16;;;;;;;2.03;0.20;;;24.80;99.90;;;;;;5055700;28;20089;-68
2021/12/30 05:36:43;;;;;;;1.88;0.43;;;24.70;99.90;;;;;;5047708;28;20060;-67
2021/12/30 05:39:10;;;;;;;2.72;0.22;;;24.90;99.90;;;;;;5035931;28;20426;-67
2021/12/30 05:41:38;;;;;;;3.13;0.50;;;25.00;99.90;;;;;;5046670;28;20032;-67
2021/12/30 05:44:05;;;;;;;1.65;0.22;;;25.10;99.90;;;;;;5056731;28;20024;-68
2021/12/30 05:46:33;;;;;;;3.97;0.57;;;25.00;99.90;;;;;;5055015;28;20044;-68
2021/12/30 05:49:00;;;;;;;1.75;0.10;;;25.10;99.90;;;;;;5051740;28;20033;-67
2021/12/30 05:51:27;;;;;;;5.38;0.60;;;25.20;99.90;;;;;;5056991;28;20035;-67
2021/12/30 05:53:55;;;;;;;2.83;0.30;;;25.20;99.90;;;;;;5038580;28;20031;-69
2021/12/30 05:56:22;;;;;;;3.20;0.50;;;25.30;99.90;;;;;;5065463;28;20021;-67
2021/12/30 05:58:49;;;;;;;3.53;0.50;;;25.40;99.90;;;;;;5053513;28;20462;-68
2021/12/30 06:01:16;;;;;;;1.67;0.60;;;25.20;99.90;;;;;;5039743;28;20027;-68
2021/12/30 06:03:44;;;;;;;3.13;0.57;;;25.30;99.90;;;;;;5054701;28;20032;-67
2021/12/30 06:06:11;;;;;;;2.85;0.75;;;25.40;99.90;;;;;;5036032;28;20026;-68
2021/12/30 06:08:39;;;;;;;1.60;0.13;;;25.30;99.90;;;;;;5036231;28;20021;-68
2021/12/30 06:11:06;;;;;;;0.90;0.10;;;25.10;99.90;;;;;;5038656;28;20025;-68
2021/12/30 06:13:33;;;;;;;2.63;0.10;;;25.20;99.90;;;;;;5049740;28;20162;-68
2021/12/30 06:16:01;;;;;;;2.53;0.10;;;25.30;99.90;;;;;;5052532;28;20048;-68
2021/12/30 06:18:28;;;;;;;3.72;0.40;;;25.40;99.90;;;;;;5052496;28;20033;-68
2021/12/30 06:20:55;;;;;;;1.63;0.20;;;25.60;99.90;;;;;;5052804;28;20086;-68
2021/12/30 06:23:23;;;;;;;3.58;0.63;;;25.50;99.90;;;;;;5035217;28;20071;-67
2021/12/30 06:25:50;;;;;;;2.25;0.10;;;25.60;99.90;;;;;;5050107;28;20022;-67
2021/12/30 06:28:17;;;;;;;3.45;0.20;;;25.60;99.90;;;;;;5054136;28;20021;-68
2021/12/30 06:30:45;;;;;;;0.82;0.13;;;25.80;99.90;;;;;;5054901;28;20385;-68
2021/12/30 06:33:12;;;;;;;2.20;0.28;;;25.20;99.90;;;;;;5054614;28;20021;-67
2021/12/30 06:35:39;;;;;;;1.65;0.20;;;25.20;99.90;;;;;;5053641;28;20043;-69
2021/12/30 06:38:06;;;;;;;1.58;0.20;;;25.70;99.90;;;;;;5052506;28;20507;-67
2021/12/30 06:40:34;;;;;;;1.75;0.20;;;25.70;99.90;;;;;;5054095;28;20040;-67
2021/12/30 06:43:01;;;;;;;2.40;0.20;;;25.80;99.90;;;;;;5039534;28;20412;-68
2021/12/30 06:45:28;;;;;;;2.30;0.28;;;26.30;99.90;;;;;;5050169;28;20034;-68
2021/12/30 06:47:56;;;;;;;1.67;0.20;;;27.10;99.90;;;;;;5041917;28;20053;-68
2021/12/30 06:50:26;;;;;;;1.40;0.13;;;27.80;99.90;;;;;;5054298;28;20024;-69
2021/12/30 06:52:53;;;;;;;3.38;0.60;;;27.90;99.90;;;;;;5049512;28;20118;-69
2021/12/30 06:55:21;;;;;;;3.10;0.20;;;27.40;99.90;;;;;;5041661;28;20128;-69
2021/12/30 06:57:48;;;;;;;2.95;0.30;;;26.40;99.90;;;;;;5036372;28;20061;-68
2021/12/30 07:00:16;;;;;;;2.90;0.20;;;25.90;99.90;;;;;;5033231;28;20029;-68
2021/12/30 07:02:44;;;;;;;2.55;0.30;;;25.40;99.90;;;;;;5066509;28;20078;-67
2021/12/30 07:05:13;;;;;;;3.22;0.40;;;24.90;99.90;;;;;;5042771;28;20037;-68
2021/12/30 07:07:43;;;;;;;1.88;0.20;;;24.60;99.90;;;;;;5037423;28;20025;-68
2021/12/30 07:10:11;;;;;;;0.88;0.35;;;24.50;99.90;;;;;;5034848;28;20075;-68
2021/12/30 07:12:38;;;;;;;1.00;0.20;;;25.10;99.90;;;;;;5049453;28;20099;-68
2021/12/30 07:15:06;;;;;;;3.25;0.30;;;25.20;99.90;;;;;;5054480;28;20021;-68
2021/12/30 07:17:34;;;;;;;3.60;0.30;;;25.00;99.90;;;;;;5052551;28;20422;-68
2021/12/30 07:20:02;;;;;;;2.20;0.20;;;25.10;99.90;;;;;;5053255;28;20111;-68
2021/12/30 07:22:29;;;;;;;3.38;0.40;;;25.00;99.90;;;;;;5052837;28;20377;-67
2021/12/30 07:24:56;;;;;;;1.65;0.28;;;25.80;99.90;;;;;;5050699;28;20112;-68
2021/12/30 07:27:24;;;;;;;2.85;0.10;;;27.20;99.90;;;;;;5048156;28;20036;-67
2021/12/30 07:29:51;;;;;;;3.85;0.17;;;26.90;99.90;;;;;;5052815;28;20036;-67
2021/12/30 07:32:18;;;;;;;2.50;0.20;;;25.80;99.90;;;;;;5053123;28;20032;-67
2021/12/30 07:34:46;;;;;;;3.15;0.20;;;25.00;99.90;;;;;;5051546;28;20381;-67
2021/12/30 07:37:14;;;;;;;1.38;0.20;;;24.70;99.90;;;;;;5053465;28;20075;-68
2021/12/30 07:39:43;;;;;;;3.85;0.30;;;24.30;99.90;;;;;;5052789;28;20032;-68
2021/12/30 07:42:11;;;;;;;1.88;0.20;;;24.10;99.90;;;;;;5047026;28;20504;-68
2021/12/30 07:44:38;;;;;;;2.10;0.30;;;24.20;99.90;;;;;;5048117;28;20556;-68
2021/12/30 07:47:07;;;;;;;1.67;0.20;;;24.40;99.90;;;;;;5045034;28;20178;-68
2021/12/30 07:49:36;;;;;;;1.88;0.35;;;24.40;99.90;;;;;;5052590;28;20053;-68
2021/12/30 07:52:07;;;;;;;1.25;0.20;;;24.70;99.90;;;;;;5052613;28;20151;-68
2021/12/30 07:54:35;;;;;;;4.25;0.30;;;24.90;99.90;;;;;;5051867;28;20040;-67
2021/12/30 07:57:03;;;;;;;4.25;0.20;;;25.90;99.90;;;;;;5052626;28;20427;-67
2021/12/30 07:59:30;;;;;;;2.35;0.38;;;25.60;99.90;;;;;;5050751;28;20032;-67
2021/12/30 08:01:58;;;;;;;2.40;0.43;;;24.50;99.90;;;;;;5037229;28;20030;-67
2021/12/30 08:04:25;;;;;;;1.80;0.30;;;24.20;99.90;;;;;;5036619;28;20033;-67
2021/12/30 08:06:52;;;;;;;5.25;0.32;;;23.90;99.90;;;;;;5053786;28;20056;-68
2021/12/30 08:09:20;;;;;;;2.13;0.40;;;23.50;99.90;;;;;;5053623;28;20033;-68
2021/12/30 08:11:48;;;;;;;3.47;0.40;;;23.30;99.90;;;;;;5046476;28;20025;-68
2021/12/30 08:14:15;;;;;;;2.05;0.40;;;23.30;99.90;;;;;;5033822;28;20047;-68
2021/12/30 08:16:43;;;;;;;3.83;0.20;;;23.20;99.90;;;;;;5039696;28;20031;-68
2021/12/30 08:19:10;;;;;;;2.45;0.25;;;23.10;99.90;;;;;;5046037;28;20116;-67
2021/12/30 08:21:41;;;;;;;3.30;0.57;;;22.90;99.90;;;;;;5041761;28;20439;-68
2021/12/30 08:24:10;;;;;;;3.50;0.80;;;22.90;99.90;;;;;;5053929;28;20021;-67
2021/12/30 08:26:38;;;;;;;4.43;0.90;;;22.90;99.90;;;;;;5051657;28;20159;-67
2021/12/30 08:29:05;;;;;;;3.20;0.50;;;22.90;99.90;;;;;;5051948;28;20102;-66
2021/12/30 08:31:36;;;;;;;4.20;0.40;;;22.90;99.90;;;;;;5047732;28;20505;-67
2021/12/30 08:34:04;;;;;;;1.13;0.20;;;22.90;99.90;;;;;;5041532;28;20029;-67
2021/12/30 08:36:32;;;;;;;3.30;0.32;;;22.80;99.90;;;;;;5051106;28;20028;-68
2021/12/30 08:39:00;;;;;;;2.67;0.20;;;22.70;99.90;;;;;;5052830;28;20025;-68
2021/12/30 08:41:27;;;;;;;1.92;0.15;;;22.70;99.90;;;;;;5050955;28;20029;-67
2021/12/30 08:43:54;;;;;;;3.05;0.45;;;22.60;99.90;;;;;;5052605;28;20057;-67
2021/12/30 08:46:22;;;;;;;4.65;0.40;;;22.60;99.90;;;;;;5049332;28;20045;-67
2021/12/30 08:48:49;;;;;;;2.15;0.20;;;22.60;99.90;;;;;;5047097;28;20040;-68
2021/12/30 08:51:16;;;;;;;3.80;0.40;;;22.50;99.90;;;;;;5048026;28;20113;-67
2021/12/30 08:53:43;;;;;;;2.72;0.35;;;22.50;99.90;;;;;;5054222;28;20036;-68
2021/12/30 08:56:12;;;;;;;3.85;0.98;;;22.50;99.90;;;;;;5047086;28;20017;-68
2021/12/30 08:58:40;;;;;;;2.58;0.40;;;22.40;99.90;;;;;;5053873;28;20442;-67
2021/12/30 09:01:07;;;;;;;4.10;0.45;;;22.40;99.90;;;;;;5049549;28;20029;-67
2021/12/30 09:03:35;;;;;;;2.78;0.30;;;22.30;99.90;;;;;;5032739;28;20024;-67
2021/12/30 09:06:02;;;;;;;2.75;0.20;;;22.40;99.90;;;;;;5052518;28;20060;-67
2021/12/30 09:08:31;;;;;;;3.33;0.45;;;22.30;99.90;;;;;;5050830;28;20075;-66
2021/12/30 09:10:58;;;;;;;3.70;0.55;;;22.30;99.90;;;;;;5037289;28;20032;-67
2021/12/30 09:13:26;;;;;;;1.60;0.55;;;22.30;99.90;;;;;;5056667;28;20380;-67
2021/12/30 09:15:55;;;;;;;1.67;0.28;;;22.30;99.90;;;;;;5054494;28;20503;-67
2021/12/30 09:18:24;;;;;;;2.95;0.47;;;22.20;99.90;;;;;;5056797;28;20029;-67
2021/12/30 09:20:51;;;;;;;2.90;0.38;;;22.20;99.90;;;;;;5054160;28;20052;-67
2021/12/30 09:23:19;;;;;;;2.13;0.17;;;22.20;99.90;;;;;;5036483;28;20096;-68
2021/12/30 09:25:46;;;;;;;4.65;0.43;;;22.20;99.90;;;;;;5041007;28;20570;-67
2021/12/30 09:28:14;;;;;;;2.85;0.20;;;22.20;99.90;;;;;;5056320;28;20032;-67
2021/12/30 09:30:45;;;;;;;5.32;0.70;;;22.10;99.90;;;;;;5056285;28;20056;-66
2021/12/30 09:33:16;;;;;;;3.10;0.45;;;22.10;99.90;;;;;;5036451;28;20032;-67
2021/12/30 09:35:47;;;;;;;4.75;0.38;;;22.10;99.90;;;;;;5036538;28;20026;-67
2021/12/30 09:38:15;;;;;;;4.82;0.77;;;22.00;99.90;;;;;;5056571;28;20021;-67
2021/12/30 09:40:44;;;;;;;4.78;0.60;;;22.00;99.90;;;;;;5054436;28;20040;-67
2021/12/30 09:43:11;;;;;;;5.18;0.40;;;22.00;99.90;;;;;;5064657;28;20029;-67
2021/12/30 09:45:40;;;;;;;8.65;0.50;;;21.90;99.90;;;;;;5055710;28;20021;-67
2021/12/30 09:48:11;;;;;;;3.45;0.30;;;21.90;99.90;;;;;;5055586;28;20076;-67
2021/12/30 09:50:44;;;;;;;3.65;0.60;;;21.90;99.90;;;;;;5048073;28;20033;-68
2021/12/30 09:53:11;;;;;;;3.13;0.40;;;21.80;99.90;;;;;;5055089;28;20648;-67
2021/12/30 09:55:39;;;;;;;3.28;0.38;;;21.90;99.90;;;;;;5055548;28;20032;-67
2021/12/30 09:58:07;;;;;;;2.97;0.32;;;21.90;99.90;;;;;;5055218;28;20074;-68
2021/12/30 10:00:35;;;;;;;5.15;0.47;;;21.80;99.90;;;;;;5056566;28;20112;-67
2021/12/30 10:03:03;;;;;;;2.65;0.22;;;21.80;99.90;;;;;;5041669;28;20527;-66
2021/12/30 10:05:33;;;;;;;2.65;0.40;;;21.80;99.90;;;;;;5046128;28;20383;-67
2021/12/30 10:08:24;;;;;;;3.17;0.30;;;21.80;99.90;;;;;;5054121;28;20088;-67
2021/12/30 10:10:57;;;;;;;3.67;0.60;;;21.80;99.90;;;;;;5055102;28;20025;-67
2021/12/30 10:13:28;;;;;;;3.42;0.28;;;21.80;99.90;;;;;;5054936;28;20032;-67
2021/12/30 10:15:59;;;;;;;4.43;0.55;;;21.80;99.90;;;;;;5052285;28;20048;-66
2021/12/30 10:18:56;;;;;;;3.42;0.22;;;21.70;99.90;;;;;;5050954;28;20075;-67
2021/12/30 10:21:31;;;;;;;3.50;0.70;;;21.70;99.90;;;;;;5039122;28;20096;-67
2021/12/30 10:24:02;;;;;;;3.45;0.30;;;21.70;99.90;;;;;;5055305;28;20502;-67
2021/12/30 10:26:29;;;;;;;3.25;0.38;;;21.60;99.90;;;;;;5054926;28;20036;-67
2021/12/30 10:28:59;;;;;;;3.28;0.30;;;21.60;99.90;;;;;;5056009;28;20021;-66
2021/12/30 10:31:29;;;;;;;5.20;0.38;;;21.50;99.90;;;;;;5055157;28;20025;-67
2021/12/30 10:34:04;;;;;;;7.35;0.50;;;21.60;99.90;;;;;;5056587;28;20067;-67
2021/12/30 10:36:38;;;;;;;3.75;0.30;;;21.60;99.90;;;;;;5054520;28;20024;-67
2021/12/30 10:39:27;;;;;;;3.78;0.47;;;21.60;99.90;;;;;;5055676;28;20033;-66
2021/12/30 10:42:20;;;;;;;4.15;0.55;;;21.50;99.90;;;;;;5045975;28;20129;-66
2021/12/30 10:44:56;;;;;;;3.53;0.60;;;21.50;99.90;;;;;;5057926;28;20038;-66
2021/12/30 10:47:27;;;;;;;8.68;0.55;;;21.50;99.90;;;;;;5053488;28;20048;-66
2021/12/30 10:50:08;;;;;;;4.35;0.55;;;21.50;99.90;;;;;;5055051;28;20159;-66
2021/12/30 10:52:53;;;;;;;5.70;0.90;;;21.50;99.90;;;;;;5054199;28;20033;-67
2021/12/30 10:55:21;;;;;;;3.25;0.40;;;21.50;99.90;;;;;;5054971;28;20032;-66
2021/12/30 10:57:49;;;;;;;6.68;0.63;;;21.40;99.90;;;;;;5038941;28;20086;-67
2021/12/30 11:00:34;;;;;;;4.47;0.80;;;21.40;99.90;;;;;;5035484;28;20100;-66
2021/12/30 11:03:27;;;;;;;3.67;0.52;;;21.40;99.90;;;;;;5053468;28;20025;-66
2021/12/30 11:06:18;;;;;;;3.90;0.32;;;21.40;99.90;;;;;;5051165;28;20029;-66
2021/12/30 11:08:49;;;;;;;3.97;0.40;;;21.40;99.90;;;;;;5055050;28;20028;-67
2021/12/30 11:11:27;;;;;;;1.67;0.25;;;21.40;99.90;;;;;;5050731;28;20386;-67
2021/12/30 11:14:14;;;;;;;4.80;0.38;;;21.40;99.90;;;;;;5035483;28;20025;-67
2021/12/30 11:17:10;;;;;;;3.33;0.60;;;21.40;99.90;;;;;;5042095;28;20029;-67
2021/12/30 11:19:41;;;;;;;6.03;0.47;;;21.40;99.90;;;;;;5054580;28;20028;-67
2021/12/30 11:22:15;;;;;;;5.78;0.60;;;21.30;99.90;;;;;;5053237;28;20036;-67
2021/12/30 11:24:44;;;;;;;4.47;0.57;;;21.30;99.90;;;;;;5054898;28;20389;-67
2021/12/30 11:27:13;;;;;;;4.65;0.32;;;21.30;99.90;;;;;;5052444;28;20468;-68
2021/12/30 11:29:45;;;;;;;5.88;0.35;;;21.30;99.90;;;;;;5053247;28;20024;-68
2021/12/30 11:32:17;;;;;;;3.25;0.40;;;21.40;99.90;;;;;;5052261;28;20104;-67
2021/12/30 11:34:46;;;;;;;6.47;0.38;;;21.40;99.90;;;;;;5054125;28;20071;-68
2021/12/30 11:37:15;;;;;;;5.18;0.60;;;21.40;99.90;;;;;;5053153;28;20025;-67
2021/12/30 11:39:49;;;;;;;5.65;0.65;;;21.40;99.90;;;;;;5048436;28;20032;-67
2021/12/30 11:42:19;;;;;;;4.93;0.60;;;21.40;99.90;;;;;;5051103;28;20048;-67
2021/12/30 11:44:58;;;;;;;5.57;0.70;;;21.30;99.90;;;;;;5054378;28;20063;-67
2021/12/30 11:47:36;;;;;;;3.00;0.55;;;21.30;99.90;;;;;;5051994;28;20143;-67
2021/12/30 11:50:13;;;;;;;6.20;0.52;;;21.30;99.90;;;;;;5053838;28;20040;-67
2021/12/30 11:52:58;;;;;;;2.25;0.30;;;21.20;99.90;;;;;;5053119;28;20033;-67
2021/12/30 11:56:05;;;;;;;3.78;0.65;;;21.20;99.90;;;;;;5052292;28;20028;-67
2021/12/30 12:01:29;;;;;;;4.32;0.60;;;21.10;99.90;;;;;;5035244;28;20029;-67
2021/12/30 12:04:27;;;;;;;5.78;0.52;;;21.10;99.90;;;;;;5052488;28;20036;-67
2021/12/30 12:07:02;;;;;;;2.35;0.30;;;21.10;99.90;;;;;;5041984;28;20099;-67
2021/12/30 12:09:30;;;;;;;3.90;0.30;;;21.10;99.90;;;;;;5053076;28;20013;-67
2021/12/30 12:12:12;;;;;;;4.95;0.47;;;21.10;99.90;;;;;;5045864;28;20027;-67
2021/12/30 12:14:47;;;;;;;5.75;0.68;;;21.10;99.90;;;;;;5053350;28;20032;-68
2021/12/30 12:17:30;;;;;;;3.58;0.52;;;21.10;99.90;;;;;;5051735;28;20024;-67
2021/12/30 12:19:58;;;;;;;7.22;0.55;;;21.10;99.90;;;;;;5053143;28;20048;-67
2021/12/30 12:22:28;;;;;;;4.70;1.00;;;21.10;99.90;;;;;;5051387;28;20040;-67
2021/12/30 12:25:18;;;;;;;3.90;0.40;;;21.10;99.90;;;;;;5052256;28;20082;-68
2021/12/30 12:27:49;;;;;;;1.50;0.20;;;21.10;99.90;;;;;;5051282;28;20035;-67
2021/12/30 12:30:29;;;;;;;4.70;0.50;;;21.00;99.90;;;;;;5050355;28;20032;-68
2021/12/30 12:32:58;;;;;;;3.25;0.47;;;21.00;99.90;;;;;;5046445;28;20064;-67
2021/12/30 12:35:29;;;;;;;3.95;0.57;;;20.90;99.90;;;;;;5041841;28;20021;-67
2021/12/30 12:38:09;;;;;;;3.47;0.25;;;20.90;99.90;;;;;;5050959;28;20029;-67
2021/12/30 12:40:40;;;;;;;5.38;0.50;;;20.80;99.90;;;;;;5051048;28;20087;-67
2021/12/30 12:43:14;;;;;;;3.72;0.60;;;20.80;99.90;;;;;;5051232;28;20033;-67
2021/12/30 12:45:57;;;;;;;5.80;0.38;;;20.80;99.90;;;;;;5051306;28;20107;-67
2021/12/30 12:48:28;;;;;;;2.72;0.70;;;20.70;99.90;;;;;;5049912;28;20124;-68
2021/12/30 12:51:25;;;;;;;5.45;0.93;;;20.70;99.90;;;;;;5050295;28;20029;-67
2021/12/30 12:54:03;;;;;;;4.05;0.45;;;20.60;99.90;;;;;;5032651;28;20025;-68
2021/12/30 12:56:40;;;;;;;3.08;0.30;;;20.60;99.90;;;;;;5038590;28;20037;-68
2021/12/30 12:59:13;;;;;;;3.85;0.52;;;20.60;99.90;;;;;;5052734;28;20037;-68
2021/12/30 13:01:46;;;;;;;4.00;0.82;;;20.60;99.90;;;;;;5050826;28;20128;-68
2021/12/30 13:04:14;;;;;;;2.80;0.52;;;20.60;99.90;;;;;;5051269;28;20029;-68
2021/12/30 13:06:44;;;;;;;6.93;0.65;;;20.60;99.90;;;;;;5051653;28;20033;-68